createdAt,value
2022-09-09T00:02:12.782Z,1.60
2022-09-09T00:04:43.663Z,1.77
2022-09-09T00:07:22.116Z,2.47
2022-09-09T00:09:59.939Z,1.52
2022-09-09T00:12:37.097Z,1.60
2022-09-09T00:15:13.849Z,1.40
2022-09-09T00:17:49.872Z,1.83
2022-09-09T00:20:27.582Z,1.63
2022-09-09T00:23:02.567Z,1.58
2022-09-09T00:25:37.902Z,1.55
2022-09-09T00:28:18.293Z,1.60
2022-09-09T00:30:49.794Z,2.05
2022-09-09T00:33:23.263Z,1.83
2022-09-09T00:35:55.350Z,1.80
2022-09-09T00:38:29.035Z,1.40
2022-09-09T00:41:05.731Z,1.40
2022-09-09T00:43:37.287Z,1.30
2022-09-09T00:46:48.008Z,1.20
2022-09-09T00:49:27.136Z,1.30
2022-09-09T00:52:10.399Z,1.50
2022-09-09T00:54:47.754Z,1.33
2022-09-09T00:57:25.667Z,1.80
2022-09-09T00:59:59.992Z,1.60
2022-09-09T01:02:33.528Z,1.60
2022-09-09T01:05:09.422Z,1.35
2022-09-09T01:07:39.306Z,1.80
2022-09-09T01:10:18.582Z,1.73
2022-09-09T01:12:49.475Z,2.00
2022-09-09T01:15:27.090Z,1.48
2022-09-09T01:18:02.733Z,2.20
2022-09-09T01:20:42.828Z,1.50
2022-09-09T01:23:28.044Z,1.88
2022-09-09T01:26:29.168Z,1.80
2022-09-09T01:29:00.599Z,2.20
2022-09-09T01:31:42.152Z,1.65
2022-09-09T01:34:14.161Z,1.90
2022-09-09T01:36:46.319Z,1.98
2022-09-09T01:39:15.743Z,2.30
2022-09-09T01:41:46.951Z,2.22
2022-09-09T01:44:19.823Z,2.08
2022-09-09T01:46:48.352Z,2.38
2022-09-09T01:49:21.219Z,2.42
2022-09-09T01:51:53.137Z,1.60
2022-09-09T01:54:30.246Z,1.60
2022-09-09T01:57:11.688Z,1.60
2022-09-09T01:59:54.431Z,1.10
2022-09-09T02:02:28.990Z,1.55
2022-09-09T02:05:19.646Z,1.17
2022-09-09T02:07:50.470Z,1.45
2022-09-09T02:10:35.518Z,1.40
2022-09-09T02:13:21.804Z,1.27
2022-09-09T02:15:56.294Z,1.58
2022-09-09T02:18:29.420Z,1.30
2022-09-09T02:21:01.084Z,2.40
2022-09-09T02:23:31.419Z,2.03
2022-09-09T02:26:02.286Z,1.77
2022-09-09T02:28:36.452Z,2.13
2022-09-09T02:31:05.068Z,2.15
2022-09-09T02:33:45.288Z,1.77
2022-09-09T02:36:17.624Z,2.00
2022-09-09T02:38:51.638Z,1.80
2022-09-09T02:41:28.457Z,1.52
2022-09-09T02:43:59.964Z,1.23
2022-09-09T02:46:44.729Z,1.50
2022-09-09T02:49:20.626Z,1.70
2022-09-09T02:51:59.305Z,2.28
2022-09-09T02:54:32.128Z,2.10
2022-09-09T02:57:10.788Z,2.08
2022-09-09T02:59:42.753Z,1.55
2022-09-09T03:02:12.667Z,1.70
2022-09-09T03:04:45.310Z,1.88
2022-09-09T03:07:17.352Z,1.90
2022-09-09T03:09:47.058Z,1.33
2022-09-09T03:12:16.343Z,1.40
2022-09-09T03:14:46.934Z,1.80
2022-09-09T03:17:16.608Z,2.08
2022-09-09T03:19:55.783Z,2.47
2022-09-09T03:22:24.642Z,2.28
2022-09-09T03:24:53.798Z,2.22
2022-09-09T03:27:22.764Z,1.60
2022-09-09T03:29:53.075Z,2.00
2022-09-09T03:32:27.425Z,1.60
2022-09-09T03:34:58.535Z,1.77
2022-09-09T03:37:28.291Z,1.63
2022-09-09T03:39:57.134Z,1.90
2022-09-09T03:42:26.039Z,2.15
2022-09-09T03:44:59.282Z,2.00
2022-09-09T03:47:28.484Z,1.60
2022-09-09T03:50:07.417Z,1.58
2022-09-09T03:52:36.797Z,5.43
2022-09-09T03:55:07.611Z,2.78
2022-09-09T03:57:37.552Z,2.30
2022-09-09T04:00:13.068Z,1.70
2022-09-09T04:02:55.543Z,1.70
2022-09-09T04:05:24.811Z,1.67
2022-09-09T04:07:53.376Z,1.88
2022-09-09T04:10:23.431Z,1.42
2022-09-09T04:12:52.272Z,1.70
2022-09-09T04:15:22.211Z,1.40
2022-09-09T04:17:50.838Z,1.80
2022-09-09T04:20:20.820Z,2.13
2022-09-09T04:22:49.208Z,1.95
2022-09-09T04:25:17.907Z,1.63
2022-09-09T04:27:46.808Z,1.85
2022-09-09T04:30:15.173Z,1.40
2022-09-09T04:32:46.050Z,1.50
2022-09-09T04:35:14.635Z,2.10
2022-09-09T04:37:43.304Z,1.90
2022-09-09T04:40:12.274Z,2.35
2022-09-09T04:42:44.958Z,1.80
2022-09-09T04:45:16.299Z,1.63
2022-09-09T04:47:46.403Z,1.60
2022-09-09T04:50:16.104Z,2.00
2022-09-09T04:52:48.501Z,1.90
2022-09-09T04:55:17.413Z,2.35
2022-09-09T04:57:46.840Z,1.95
2022-09-09T05:00:18.480Z,2.30
2022-09-09T05:02:48.960Z,2.10
2022-09-09T05:05:17.865Z,2.10
2022-09-09T05:07:47.262Z,1.80
2022-09-09T05:10:17.494Z,1.83
2022-09-09T05:12:54.968Z,1.63
2022-09-09T05:15:26.071Z,1.50
2022-09-09T05:18:00.416Z,1.75
2022-09-09T05:20:30.142Z,1.75
2022-09-09T05:22:59.249Z,1.70
2022-09-09T05:25:30.660Z,1.85
2022-09-09T05:28:00.968Z,1.23
2022-09-09T05:30:29.745Z,2.05
2022-09-09T05:33:00.346Z,1.92
2022-09-09T05:35:31.426Z,1.80
2022-09-09T05:38:01.679Z,2.05
2022-09-09T05:40:31.770Z,2.30
2022-09-09T05:43:02.900Z,1.95
2022-09-09T05:45:32.099Z,1.65
2022-09-09T05:48:02.885Z,1.77
2022-09-09T05:50:32.986Z,1.65
2022-09-09T05:53:01.294Z,1.75
2022-09-09T05:55:31.906Z,1.60
2022-09-09T05:58:00.883Z,1.73
2022-09-09T06:00:30.609Z,1.80
2022-09-09T06:03:00.309Z,1.52
2022-09-09T06:05:31.604Z,2.05
2022-09-09T06:08:01.455Z,2.42
2022-09-09T06:10:29.787Z,2.15
2022-09-09T06:12:58.350Z,1.75
2022-09-09T06:15:28.051Z,2.40
2022-09-09T06:17:57.404Z,3.20
2022-09-09T06:20:25.780Z,2.97
2022-09-09T06:22:55.379Z,3.63
2022-09-09T06:25:25.528Z,2.80
2022-09-09T06:27:53.836Z,2.65
2022-09-09T06:30:22.403Z,2.50
2022-09-09T06:32:50.958Z,2.80
2022-09-09T06:35:19.714Z,2.42
2022-09-09T06:37:50.180Z,2.88
2022-09-09T06:40:21.871Z,3.53
2022-09-09T06:42:51.261Z,2.85
2022-09-09T06:45:37.575Z,3.30
2022-09-09T06:48:06.373Z,3.50
2022-09-09T06:50:34.761Z,3.03
2022-09-09T06:53:03.982Z,3.10
2022-09-09T06:55:35.084Z,3.63
2022-09-09T06:58:03.692Z,3.25
2022-09-09T07:00:32.528Z,3.25
2022-09-09T07:03:01.451Z,2.95
2022-09-09T07:05:30.566Z,2.70
2022-09-09T07:07:59.312Z,3.00
2022-09-09T07:10:28.874Z,3.47
2022-09-09T07:12:59.272Z,3.70
2022-09-09T07:15:28.088Z,3.45
2022-09-09T07:17:57.443Z,4.97
2022-09-09T07:20:27.482Z,3.88
2022-09-09T07:22:57.035Z,4.15
2022-09-09T07:25:26.071Z,3.20
2022-09-09T07:27:54.400Z,3.13
2022-09-09T07:30:27.717Z,3.50
2022-09-09T07:32:58.277Z,3.42
2022-09-09T07:35:28.003Z,3.95
2022-09-09T07:37:57.508Z,3.08
2022-09-09T07:40:26.121Z,2.83
2022-09-09T07:42:55.690Z,2.75
2022-09-09T07:45:25.803Z,2.97
2022-09-09T07:47:55.049Z,2.40
2022-09-09T07:50:24.554Z,2.10
2022-09-09T07:52:54.612Z,2.17
2022-09-09T07:55:27.099Z,2.60
2022-09-09T07:57:57.586Z,2.40
2022-09-09T08:00:29.206Z,2.30
2022-09-09T08:03:03.105Z,1.90
2022-09-09T08:05:31.957Z,1.85
2022-09-09T08:08:01.826Z,1.90
2022-09-09T08:10:30.622Z,1.90
2022-09-09T08:13:17.304Z,2.33
2022-09-09T08:15:50.139Z,2.17
2022-09-09T08:18:19.756Z,1.88
2022-09-09T08:20:49.490Z,1.80
2022-09-09T08:23:18.088Z,1.92
2022-09-09T08:25:46.670Z,1.70
2022-09-09T08:28:16.593Z,1.50
2022-09-09T08:30:45.003Z,2.10
2022-09-09T08:33:15.054Z,1.90
2022-09-09T08:35:53.163Z,1.80
2022-09-09T08:38:22.595Z,2.30
2022-09-09T08:40:55.004Z,2.20
2022-09-09T08:43:25.920Z,1.90
2022-09-09T08:46:05.088Z,2.50
2022-09-09T08:48:50.070Z,2.42
2022-09-09T08:51:18.871Z,2.28
2022-09-09T08:53:51.430Z,2.55
2022-09-09T08:56:24.987Z,2.50
2022-09-09T08:58:58.887Z,2.05
2022-09-09T09:01:52.349Z,2.10
2022-09-09T09:04:44.936Z,2.50
2022-09-09T09:07:32.564Z,2.33
2022-09-09T09:10:24.266Z,2.70
2022-09-09T09:13:03.198Z,2.45
2022-09-09T09:15:38.308Z,2.30
2022-09-09T09:18:13.534Z,2.22
2022-09-09T09:20:53.180Z,2.70
2022-09-09T09:23:24.830Z,2.00
2022-09-09T09:26:01.752Z,2.60
2022-09-09T09:28:34.168Z,2.30
2022-09-09T09:31:15.224Z,2.40
2022-09-09T09:33:51.238Z,2.33
2022-09-09T09:36:27.707Z,2.80
2022-09-09T09:41:48.532Z,2.50
2022-09-09T09:44:27.184Z,3.00
2022-09-09T09:47:09.247Z,2.78
2022-09-09T09:49:38.497Z,2.90
2022-09-09T09:52:09.615Z,2.17
2022-09-09T09:54:41.472Z,1.88
2022-09-09T09:57:13.412Z,1.58
2022-09-09T09:59:44.718Z,1.80
2022-09-09T10:02:24.256Z,1.52
2022-09-09T10:05:06.719Z,1.83
2022-09-09T10:07:39.881Z,1.83
2022-09-09T10:10:16.482Z,2.00
2022-09-09T10:12:58.199Z,2.75
2022-09-09T10:15:42.507Z,3.65
2022-09-09T10:18:49.497Z,4.95
2022-09-09T10:21:33.087Z,7.28
2022-09-09T10:24:29.354Z,5.68
2022-09-09T10:27:04.526Z,3.58
2022-09-09T10:29:45.073Z,3.83
2022-09-09T10:32:38.491Z,4.20
2022-09-09T10:35:14.166Z,4.32
2022-09-09T10:38:07.404Z,4.35
2022-09-09T10:40:45.462Z,3.50
2022-09-09T10:43:31.500Z,4.45
2022-09-09T10:46:10.435Z,3.33
2022-09-09T10:48:56.176Z,3.30
2022-09-09T10:51:38.699Z,2.35
2022-09-09T10:54:30.153Z,2.92
2022-09-09T10:57:05.682Z,2.90
2022-09-09T10:59:39.369Z,3.20
2022-09-09T11:02:18.783Z,2.80
2022-09-09T11:04:53.619Z,3.05
2022-09-09T11:07:30.299Z,2.20
2022-09-09T11:10:07.373Z,2.50
2022-09-09T11:12:41.450Z,2.05
2022-09-09T11:15:19.122Z,2.95
2022-09-09T11:17:51.855Z,2.50
2022-09-09T11:20:20.242Z,2.10
2022-09-09T11:22:53.244Z,2.22
2022-09-09T11:25:27.855Z,2.63
2022-09-09T11:28:17.307Z,2.15
2022-09-09T11:31:00.523Z,2.22
2022-09-09T11:34:00.230Z,2.40
2022-09-09T11:36:49.308Z,2.38
2022-09-09T11:39:40.710Z,2.65
2022-09-09T11:42:10.880Z,2.38
2022-09-09T11:44:41.069Z,2.58
2022-09-09T11:47:23.080Z,2.70
2022-09-09T11:49:51.404Z,2.20
2022-09-09T11:52:26.687Z,2.17
2022-09-09T11:54:57.374Z,2.08
2022-09-09T11:57:33.063Z,2.10
2022-09-09T12:00:03.640Z,1.80
2022-09-09T12:02:52.163Z,2.17
2022-09-09T12:05:23.039Z,2.05
2022-09-09T12:07:56.892Z,1.98
2022-09-09T12:10:29.854Z,1.90
2022-09-09T12:13:10.222Z,2.00
2022-09-09T12:15:51.203Z,1.95
2022-09-09T12:18:26.362Z,1.75
2022-09-09T12:21:02.812Z,1.88
2022-09-09T12:23:43.831Z,1.70
2022-09-09T12:26:26.493Z,1.63
2022-09-09T12:29:04.343Z,1.88
2022-09-09T12:31:45.113Z,2.10
2022-09-09T12:34:19.390Z,1.60
2022-09-09T12:36:55.851Z,1.52
2022-09-09T12:39:32.495Z,1.45
2022-09-09T12:42:01.299Z,1.38
2022-09-09T12:44:30.111Z,1.10
2022-09-09T12:47:03.639Z,1.05
2022-09-09T12:49:35.845Z,1.05
2022-09-09T12:52:06.882Z,0.93
2022-09-09T12:54:38.039Z,0.88
2022-09-09T12:57:07.080Z,0.80
2022-09-09T12:59:41.327Z,1.10
2022-09-09T13:02:21.394Z,1.00
2022-09-09T13:04:51.571Z,1.10
2022-09-09T13:07:20.939Z,1.00
2022-09-09T13:09:51.266Z,0.90
2022-09-09T13:12:22.194Z,1.10
2022-09-09T13:14:52.998Z,1.13
2022-09-09T13:17:26.695Z,0.93
2022-09-09T13:19:56.996Z,1.05
2022-09-09T13:22:34.352Z,1.17
2022-09-09T13:25:19.595Z,0.95
2022-09-09T13:27:56.877Z,1.10
2022-09-09T13:30:27.858Z,1.20
2022-09-09T13:33:24.474Z,0.90
2022-09-09T13:35:56.764Z,0.80
2022-09-09T13:38:27.742Z,1.00
2022-09-09T13:40:58.988Z,0.85
2022-09-09T13:43:28.782Z,0.85
2022-09-09T13:46:00.289Z,0.80
2022-09-09T13:48:31.000Z,0.90
2022-09-09T13:51:02.905Z,0.55
2022-09-09T13:53:31.889Z,0.80
2022-09-09T13:56:02.754Z,0.80
2022-09-09T13:58:31.031Z,0.60
2022-09-09T14:00:59.774Z,0.52
2022-09-09T14:03:28.214Z,0.60
2022-09-09T14:05:58.858Z,0.50
2022-09-09T14:08:38.531Z,0.93
2022-09-09T14:11:07.040Z,0.63
2022-09-09T14:13:36.130Z,0.55
2022-09-09T14:16:04.457Z,0.73
2022-09-09T14:18:33.556Z,0.70
2022-09-09T14:21:04.096Z,0.75
2022-09-09T14:23:33.756Z,0.65
2022-09-09T14:26:02.519Z,0.60
2022-09-09T14:31:20.392Z,0.75
2022-09-09T14:33:48.818Z,1.00
2022-09-09T14:36:19.031Z,0.70
2022-09-09T14:38:47.544Z,0.57
2022-09-09T14:41:19.301Z,0.63
2022-09-09T14:43:48.578Z,0.85
2022-09-09T14:46:19.033Z,0.70
2022-09-09T14:48:49.777Z,0.50
2022-09-09T14:51:23.624Z,0.50
2022-09-09T14:53:54.915Z,0.47
2022-09-09T14:56:26.443Z,0.60
2022-09-09T14:58:56.801Z,0.40
2022-09-09T15:01:28.259Z,0.63
2022-09-09T15:03:59.451Z,0.60
2022-09-09T15:06:31.068Z,0.68
2022-09-09T15:09:00.318Z,0.80
2022-09-09T15:11:31.756Z,0.60
2022-09-09T15:14:00.290Z,0.60
2022-09-09T15:16:30.239Z,0.65
2022-09-09T15:19:01.307Z,0.80
2022-09-09T15:21:33.807Z,0.60
2022-09-09T15:24:02.390Z,0.60
2022-09-09T15:26:31.239Z,0.77
2022-09-09T15:29:01.036Z,0.95
2022-09-09T15:31:32.819Z,0.70
2022-09-09T15:34:04.105Z,0.47
2022-09-09T15:36:35.933Z,0.73
2022-09-09T15:39:06.167Z,0.80
2022-09-09T15:41:36.026Z,0.35
2022-09-09T15:44:04.635Z,0.50
2022-09-09T15:46:37.485Z,0.50
2022-09-09T15:49:07.698Z,0.50
2022-09-09T15:51:44.255Z,0.65
2022-09-09T15:54:15.065Z,0.40
2022-09-09T15:56:44.427Z,0.47
2022-09-09T15:59:13.108Z,0.65
2022-09-09T16:01:43.533Z,0.40
2022-09-09T16:04:12.617Z,0.55
2022-09-09T16:06:43.028Z,0.70
2022-09-09T16:09:12.032Z,0.50
2022-09-09T16:11:41.436Z,0.50
2022-09-09T16:14:10.027Z,0.60
2022-09-09T16:16:39.353Z,0.90
2022-09-09T16:19:10.731Z,0.75
2022-09-09T16:21:43.019Z,0.57
2022-09-09T16:24:13.768Z,0.90
2022-09-09T16:26:46.112Z,0.73
2022-09-09T16:29:15.546Z,0.77
2022-09-09T16:31:44.295Z,0.80
2022-09-09T16:34:13.040Z,0.77
2022-09-09T16:36:44.174Z,0.80
2022-09-09T16:39:14.249Z,0.50
2022-09-09T16:41:45.175Z,0.50
2022-09-09T16:44:16.149Z,0.60
2022-09-09T16:46:45.396Z,0.90
2022-09-09T16:49:16.275Z,0.70
2022-09-09T16:51:48.426Z,0.80
2022-09-09T16:54:18.194Z,1.00
2022-09-09T16:56:48.672Z,1.00
2022-09-09T16:59:19.037Z,0.80
2022-09-09T17:01:49.509Z,0.80
2022-09-09T17:04:22.005Z,0.60
2022-09-09T17:06:54.449Z,0.98
2022-09-09T17:09:24.519Z,0.80
2022-09-09T17:11:54.534Z,0.80
2022-09-09T17:14:24.797Z,0.82
2022-09-09T17:16:53.791Z,0.70
2022-09-09T17:19:22.130Z,0.70
2022-09-09T17:24:41.484Z,0.90
2022-09-09T17:27:10.057Z,0.80
2022-09-09T17:29:38.865Z,0.57
2022-09-09T17:32:08.729Z,0.80
2022-09-09T17:34:37.519Z,0.70
2022-09-09T17:37:08.406Z,0.63
2022-09-09T17:39:37.035Z,0.80
2022-09-09T17:42:05.511Z,0.75
2022-09-09T17:44:34.254Z,0.93
2022-09-09T17:47:05.302Z,0.68
2022-09-09T17:49:33.628Z,0.80
2022-09-09T17:52:02.774Z,0.68
2022-09-09T17:54:34.320Z,0.90
2022-09-09T17:57:02.718Z,0.77
2022-09-09T17:59:32.063Z,0.77
2022-09-09T18:02:00.602Z,0.65
2022-09-09T18:04:29.036Z,0.63
2022-09-09T18:06:57.655Z,0.77
2022-09-09T18:09:28.224Z,0.75
2022-09-09T18:12:00.121Z,0.68
2022-09-09T18:14:31.553Z,0.80
2022-09-09T18:17:00.835Z,1.00
2022-09-09T18:19:32.277Z,0.80
2022-09-09T18:22:02.815Z,0.85
2022-09-09T18:24:32.001Z,0.85
2022-09-09T18:27:02.292Z,2.10
2022-09-09T18:29:31.166Z,0.90
2022-09-09T18:32:00.424Z,1.05
2022-09-09T18:34:30.473Z,1.00
2022-09-09T18:36:58.820Z,1.00
2022-09-09T18:39:30.156Z,0.80
2022-09-09T18:42:01.079Z,0.93
2022-09-09T18:44:33.077Z,0.65
2022-09-09T18:47:02.855Z,1.00
2022-09-09T18:49:31.383Z,0.77
2022-09-09T18:52:00.409Z,0.75
2022-09-09T18:54:31.374Z,0.95
2022-09-09T18:57:01.283Z,0.68
2022-09-09T18:59:32.078Z,0.70
2022-09-09T19:02:00.614Z,0.70
2022-09-09T19:04:29.802Z,0.70
2022-09-09T19:06:58.772Z,2.30
2022-09-09T19:09:31.079Z,0.98
2022-09-09T19:12:00.767Z,1.20
2022-09-09T19:14:31.140Z,1.00
2022-09-09T19:17:00.442Z,0.90
2022-09-09T19:19:32.555Z,0.75
2022-09-09T19:22:02.169Z,0.82
2022-09-09T19:24:32.839Z,1.20
2022-09-09T19:27:03.207Z,1.00
2022-09-09T19:29:34.717Z,1.00
2022-09-09T19:34:53.030Z,0.75
2022-09-09T19:37:22.803Z,0.77
2022-09-09T19:39:51.783Z,0.95
2022-09-09T19:42:20.574Z,0.90
2022-09-09T19:44:50.851Z,0.80
2022-09-09T19:47:19.787Z,0.95
2022-09-09T19:49:48.193Z,1.10
2022-09-09T19:52:17.817Z,0.93
2022-09-09T19:54:46.731Z,1.02
2022-09-09T19:57:15.671Z,1.02
2022-09-09T19:59:44.795Z,0.90
2022-09-09T20:02:16.635Z,1.10
2022-09-09T20:04:45.101Z,0.95
2022-09-09T20:07:13.527Z,0.75
2022-09-09T20:09:42.194Z,0.90
2022-09-09T20:12:10.944Z,0.90
2022-09-09T20:14:40.259Z,0.80
2022-09-09T20:17:10.072Z,0.68
2022-09-09T20:19:40.511Z,0.80
2022-09-09T20:22:08.914Z,0.80
2022-09-09T20:24:38.007Z,0.70
2022-09-09T20:27:08.008Z,1.00
2022-09-09T20:29:37.483Z,0.70
2022-09-09T20:32:06.856Z,0.70
2022-09-09T20:34:35.395Z,0.60
2022-09-09T20:37:05.879Z,0.80
2022-09-09T20:39:36.412Z,0.60
2022-09-09T20:42:05.270Z,0.50
2022-09-09T20:44:33.625Z,0.77
2022-09-09T20:47:06.969Z,1.00
2022-09-09T20:49:36.189Z,0.80
2022-09-09T20:52:07.216Z,0.70
2022-09-09T20:54:37.922Z,0.60
2022-09-09T20:57:07.133Z,1.00
2022-09-09T20:59:36.128Z,0.93
2022-09-09T21:02:04.974Z,0.90
2022-09-09T21:04:33.754Z,1.02
2022-09-09T21:07:02.569Z,0.98
2022-09-09T21:09:32.563Z,0.70
2022-09-09T21:12:01.555Z,0.90
2022-09-09T21:14:29.841Z,0.90
2022-09-09T21:16:58.542Z,0.85
2022-09-09T21:19:26.858Z,0.85
2022-09-09T21:21:56.143Z,0.80
2022-09-09T21:24:24.423Z,1.08
2022-09-09T21:26:56.455Z,0.98
2022-09-09T21:29:25.064Z,0.77
2022-09-09T21:31:56.226Z,1.05
2022-09-09T21:34:24.709Z,0.70
2022-09-09T21:36:53.623Z,0.93
2022-09-09T21:39:22.660Z,0.88
2022-09-09T21:41:51.510Z,0.98
2022-09-09T21:44:21.366Z,0.80
2022-09-09T21:46:49.698Z,1.50
2022-09-09T21:49:17.976Z,1.20
2022-09-09T21:51:47.408Z,1.13
2022-09-09T21:54:15.739Z,0.98
2022-09-09T21:56:44.576Z,1.33
2022-09-09T21:59:12.912Z,1.17
2022-09-09T22:01:43.534Z,0.93
2022-09-09T22:04:12.175Z,1.10
2022-09-09T22:06:40.566Z,1.00
2022-09-09T22:09:09.943Z,1.33
2022-09-09T22:11:38.249Z,1.08
2022-09-09T22:14:07.458Z,0.90
2022-09-09T22:16:36.024Z,0.82
2022-09-09T22:19:07.681Z,0.80
2022-09-09T22:21:36.117Z,1.30
2022-09-09T22:24:06.905Z,0.93
2022-09-09T22:26:37.732Z,0.80
2022-09-09T22:29:07.620Z,0.70
2022-09-09T22:31:37.252Z,0.80
2022-09-09T22:34:08.401Z,0.80
2022-09-09T22:36:36.746Z,0.77
2022-09-09T22:39:05.971Z,0.82
2022-09-09T22:41:35.139Z,0.95
2022-09-09T22:44:04.094Z,1.40
2022-09-09T22:46:32.801Z,1.33
2022-09-09T22:49:03.887Z,1.58
2022-09-09T22:51:35.125Z,1.23
2022-09-09T22:54:03.808Z,1.30
2022-09-09T22:56:32.223Z,1.52
2022-09-09T22:59:01.583Z,1.38
2022-09-09T23:01:30.887Z,1.40
2022-09-09T23:04:03.015Z,1.00
2022-09-09T23:06:33.279Z,1.52
2022-09-09T23:09:03.978Z,1.20
2022-09-09T23:11:34.680Z,1.38
2022-09-09T23:14:06.515Z,1.17
2022-09-09T23:16:38.657Z,1.67
2022-09-09T23:19:10.814Z,1.30
2022-09-09T23:21:41.015Z,1.40
2022-09-09T23:24:12.859Z,1.42
2022-09-09T23:26:41.696Z,1.42
2022-09-09T23:29:15.140Z,1.30
2022-09-09T23:31:47.001Z,1.10
2022-09-09T23:34:16.341Z,1.40
2022-09-09T23:36:47.509Z,1.40
2022-09-09T23:39:16.254Z,1.20
2022-09-09T23:41:44.876Z,1.20
2022-09-09T23:44:14.226Z,1.30
2022-09-09T23:46:42.641Z,1.50
2022-09-09T23:49:11.729Z,0.95
2022-09-09T23:51:41.887Z,1.02
2022-09-09T23:54:12.042Z,1.10
2022-09-09T23:56:42.407Z,1.60
2022-09-09T23:59:11.850Z,0.95
